Station: Smithton  

  Atmospheric Gas Attenuation - ITU Rec 676-11   ----------------- dB/100km -----------------
Date Time Temp RH % AH g/m3 Dew Point Wind Direction Speed kph Gust kph Barometer mB Rainfall Since 9am 24GHz 47GHz 76GHz 122GHz 134GHz 241GHz
03/05 04:50 15.9 92 12.46 14.6 15 17 1012.6 4.8 27.7 31.8 54.9 144.7 148.7 514.6
03/05 04:40 15.9 92 12.46 14.6 17 20 1012.7 4.4 27.7 31.8 54.9 144.7 148.7 514.6
03/05 04:30 16 91 12.4 14.5 19 24 1012.8 4.4 27.6 31.6 54.5 143.8 147.7 510.9
03/05 04:20 16.1 91 12.47 14.6 17 20 1013 4.2 27.8 31.7 54.8 144.5 148.5 513.9
03/05 04:10 16.1 91 12.47 14.6 17 17 1013 4 27.8 31.7 54.8 144.5 148.5 513.9
03/05 04:00 16.2 91 12.55 14.7 20 26 1012.9 3.8 27.9 31.8 55.1 145.2 149.5 517.3
03/05 03:50 16.2 90 12.41 14.6 22 26 1012.9 3.6 27.6 31.6 54.5 143.6 147.4 510.2
03/05 03:40 16.2 90 12.41 14.6 22 24 1013.2 3.2 27.6 31.6 54.5 143.6 147.5 510.3
03/05 03:30 16.2 90 12.41 14.6 20 28 1013.5 3 27.6 31.6 54.5 143.6 147.5 510.4
03/05 03:20 16.1 89 12.2 14.3 17 20 1013.6 2.6 27.2 31.3 53.6 141.4 144.7 500.5
03/05 03:10 16.2 89 12.27 14.4 19 20 1013.6 2.2 27.3 31.4 53.9 142.0 145.5 503.3
03/05 03:00 16.1 88 12.06 14.1 15 19 1013.7 1.8 26.9 31.0 53.0 139.7 142.6 493.4
03/05 02:50 16.2 87 12 14 15 17 1013.9 1.6 26.7 30.9 52.7 138.9 141.6 489.9
03/05 02:40 16.4 87 12.14 14.2 17 20 1014 1.4 27.0 31.1 53.2 140.2 143.3 495.6
03/05 02:30 16.6 86 12.15 14.2 19 26 1014 1.4 27.0 31.0 53.1 139.9 143.0 494.9
03/05 02:20 16.6 86 12.15 14.2 19 22 1014 1 27.0 31.0 53.1 139.9 143.0 494.9
03/05 02:10 16.4 86 12 14.1 17 19 1013.8 0.6 26.7 30.8 52.6 138.5 141.2 488.6
03/05 02:00 16.5 87 12.22 14.3 19 24 1013.9 0.6 27.2 31.2 53.5 140.9 144.2 499.0
03/05 01:50 16.3 87 12.07 14.1 17 20 1014 0.6 26.9 31.0 52.9 139.5 142.5 492.8
03/05 01:40 16.2 87 12 14 13 15 1014.3 0.6 26.7 30.9 52.7 138.9 141.7 490.0
03/05 01:30 16.2 87 12 14 13 17 1014.3 0.6 26.7 30.9 52.7 138.9 141.7 490.0
03/05 01:20 16.3 86 11.93 14 13 15 1014.2 0.6 26.6 30.7 52.3 137.9 140.5 485.8
03/05 01:10 16.4 85 11.86 13.9 13 15 1014.1 0.6 26.4 30.6 52.0 136.9 139.3 481.7
03/05 01:00 16.4 84 11.72 13.7 11 13 1014.3 0.6 26.1 30.3 51.4 135.3 137.3 474.8
03/05 00:50 16.9 82 11.79 13.8 11 11 1014.5 0.4 26.2 30.3 51.3 135.3 137.4 475.3
03/05 00:40 17.3 81 11.93 14 13 13 1014.5 0 26.5 30.4 51.7 136.2 138.7 479.7
03/05 00:30 17.3 82 12.08 14.2 17 24 1014.3 0 26.8 30.7 52.3 137.9 140.8 487.0
03/05 00:20 17.1 82 11.94 14 19 20 1014.4 0 26.5 30.5 51.9 136.6 139.2 481.4
03/05 00:10 17.2 81 11.86 13.9 17 19 1014.7 0 26.4 30.3 51.5 135.6 137.9 476.9
03/05 00:00 17.4 80 11.86 13.9 15 24 1014.7 0 26.4 30.3 51.3 135.2 137.5 475.7
02/05 23:50 17.7 78 11.77 13.8 15 19 1014.9 0 26.1 30.0 50.8 133.7 135.7 469.5
02/05 23:40 18.1 75 11.59 13.6 19 20 1015.1 0 25.7 29.6 49.7 131.0 132.6 458.5
02/05 23:30 18.6 72 11.46 13.5 20 30 1015.1 0 25.4 29.2 48.9 128.7 129.9 449.3
02/05 23:20 18.3 72 11.26 13.2 17 19 1015.1 0 25.0 28.9 48.2 127.0 127.7 441.5
02/05 23:10 18.5 71 11.23 13.1 19 20 1015 0 24.9 28.8 48.0 126.3 126.9 438.9
02/05 23:00 18.8 69 11.11 13 20 30 1015.1 0 24.7 28.5 47.3 124.6 124.8 431.6
02/05 22:50 18.9 68 11.02 12.9 19 20 1015.1 0 24.5 28.4 46.9 123.4 123.5 426.8
02/05 22:40 19.3 65 10.78 12.6 26 32 1015 0 23.9 27.8 45.7 120.2 119.6 413.5
02/05 22:30 19.5 63 10.57 12.3 24 32 1014.9 0 23.5 27.4 44.7 117.6 116.6 402.8
02/05 22:20 19.5 63 10.57 12.3 22 26 1014.9 0 23.5 27.4 44.7 117.6 116.6 402.8
02/05 22:10 19.3 65 10.78 12.6 24 28 1014.9 0 23.9 27.8 45.7 120.2 119.6 413.5
02/05 22:00 18.9 68 11.02 12.9 26 39 1014.8 0 24.5 28.3 46.9 123.4 123.4 426.7
02/05 21:50 18.8 70 11.27 13.2 30 33 1014.9 0 25.0 28.8 48.0 126.3 127.0 439.1
02/05 21:40 18.4 71 11.17 13 26 30 1015 0 24.8 28.8 47.8 125.8 126.3 436.6
02/05 21:30 18.3 72 11.26 13.2 24 30 1015 0 25.0 28.9 48.2 127.0 127.7 441.5
02/05 21:20 18.1 73 11.28 13.2 24 30 1015 0 25.1 29.0 48.4 127.5 128.3 443.6
02/05 21:10 18.1 74 11.43 13.4 22 26 1015 0 25.4 29.3 49.1 129.2 130.3 450.7
02/05 21:00 17.9 75 11.45 13.4 24 33 1014.9 0 25.4 29.4 49.3 129.8 131.0 452.8
02/05 20:50 17.6 77 11.55 13.5 22 28 1014.8 0 25.7 29.7 49.9 131.4 132.8 459.4
02/05 20:40 17.6 77 11.55 13.5 20 26 1014.9 0 25.7 29.7 49.9 131.4 132.9 459.4
02/05 20:30 17.6 78 11.7 13.7 24 32 1014.8 0 26.0 29.9 50.5 133.1 134.9 466.7
02/05 20:20 17.7 78 11.77 13.8 28 32 1014.9 0 26.1 30.0 50.8 133.7 135.7 469.5
02/05 20:10 17.5 78 11.63 13.6 24 28 1014.9 0 25.9 29.8 50.3 132.5 134.1 463.9
02/05 20:00 17.5 78 11.63 13.6 24 32 1014.9 0 25.9 29.8 50.3 132.5 134.1 463.9
02/05 19:50 17.5 78 11.63 13.6 24 30 1014.9 0 25.9 29.8 50.3 132.5 134.1 463.9
02/05 19:40 17.5 78 11.63 13.6 24 28 1014.9 0 25.9 29.8 50.3 132.5 134.1 463.9
02/05 19:30 17.4 78 11.56 13.5 24 35 1015 0 25.7 29.8 50.1 131.9 133.3 461.1
02/05 19:20 17.4 77 11.41 13.3 22 28 1015 0 25.4 29.5 49.4 130.2 131.3 453.9
02/05 19:10 17.5 76 11.33 13.2 26 33 1014.9 0 25.2 29.3 49.0 129.1 130.0 449.4
02/05 19:00 17.6 76 11.4 13.3 24 33 1014.9 0 25.4 29.4 49.3 129.7 130.8 452.2
02/05 18:50 17.6 75 11.25 13.1 22 28 1014.9 0 25.0 29.2 48.6 128.0 128.7 445.0
02/05 18:40 17.7 76 11.47 13.4 26 30 1014.8 0 25.5 29.5 49.5 130.3 131.6 454.9
02/05 18:30 17.5 79 11.78 13.8 24 30 1014.8 0 26.2 30.1 50.9 134.2 136.2 471.2
02/05 18:20 17.4 79 11.71 13.7 24 28 1014.7 0 26.0 30.0 50.7 133.5 135.4 468.3
02/05 18:10 17.5 78 11.63 13.6 26 32 1014.6 0 25.9 29.8 50.3 132.4 134.1 463.8
02/05 18:00 17.6 77 11.55 13.5 26 35 1014.4 0 25.7 29.6 49.9 131.3 132.8 459.3
02/05 17:50 17.8 75 11.38 13.3 26 33 1014.4 0 25.3 29.3 49.0 129.1 130.1 449.9
02/05 17:40 17.8 76 11.53 13.5 24 28 1014.5 0 25.6 29.5 49.7 130.8 132.2 457.1
02/05 17:30 17.8 76 11.53 13.5 24 35 1014.5 0 25.6 29.5 49.7 130.8 132.2 457.1
02/05 17:20 18 75 11.52 13.5 22 28 1014.5 0 25.6 29.5 49.5 130.3 131.7 455.5
02/05 17:10 18.3 73 11.41 13.4 26 30 1014.5 0 25.3 29.2 48.8 128.6 129.7 448.5
02/05 17:00 18.3 72 11.26 13.2 22 32 1014.6 0 25.0 28.9 48.2 127.0 127.6 441.3
02/05 16:50 18.5 71 11.23 13.1 22 26 1014.6 0 24.9 28.8 48.0 126.3 126.9 438.8
02/05 16:40 18.5 72 11.39 13.4 19 22 1014.7 0 25.3 29.1 48.6 128.1 129.1 446.4
02/05 16:30 18.7 71 11.37 13.3 22 32 1014.7 0 25.2 29.0 48.4 127.5 128.5 444.3
02/05 16:20 18.9 72 11.66 13.7 24 28 1014.8 0 25.8 29.4 49.5 130.4 132.1 457.0
02/05 16:10 18.8 74 11.92 14.1 20 26 1014.9 0 26.4 29.9 50.7 133.5 135.9 470.1
02/05 16:00 18.6 76 12.09 14.3 22 32 1015 0 26.8 30.2 51.5 135.8 138.6 479.6
02/05 15:50 18.3 77 12.04 14.2 22 28 1015.1 0 26.7 30.3 51.5 135.8 138.5 479.1
02/05 15:40 18.4 76 11.95 14.1 20 20 1015.3 0 26.5 30.1 51.1 134.6 137.0 474.2
02/05 15:30 18.4 76 11.95 14.1 24 32 1015.2 0 26.5 30.1 51.1 134.6 137.0 474.1
02/05 15:20 18.4 77 12.11 14.3 28 32 1015.3 0 26.8 30.4 51.8 136.4 139.3 482.0
02/05 15:10 18.4 76 11.95 14.1 30 32 1015.2 0 26.5 30.1 51.1 134.6 137.0 474.1
02/05 15:00 18.4 76 11.95 14.1 24 32 1015.4 0 26.5 30.1 51.1 134.6 137.1 474.2
02/05 14:50 18.5 76 12.02 14.2 26 32 1015.4 0 26.6 30.2 51.3 135.2 137.8 477.0
02/05 14:40 18.4 76 11.95 14.1 24 30 1015.5 0 26.5 30.1 51.1 134.6 137.1 474.2
02/05 14:30 18.5 76 12.02 14.2 24 33 1015.7 0 26.6 30.2 51.3 135.3 137.9 477.1
02/05 14:20 18.7 75 12.01 14.2 20 22 1015.7 0 26.6 30.1 51.2 134.8 137.4 475.4
02/05 14:10 18.7 75 12.01 14.2 20 22 1015.6 0 26.6 30.1 51.2 134.8 137.4 475.4
02/05 14:00 18.7 76 12.17 14.4 22 32 1015.7 0 26.9 30.4 51.8 136.6 139.6 483.2
02/05 13:50 18.6 75 11.94 14.1 28 32 1015.7 0 26.4 30.0 50.9 134.2 136.6 472.6
02/05 13:40 18.8 75 12.08 14.3 32 37 1015.7 0 26.7 30.2 51.4 135.4 138.2 478.2
02/05 13:30 18.8 74 11.92 14.1 28 39 1015.8 0 26.4 29.9 50.7 133.6 136.0 470.5
02/05 13:20 19.2 73 12.04 14.2 28 33 1015.9 0 26.6 30.0 51.0 134.3 136.9 473.9
02/05 13:10 19.3 74 12.27 14.6 26 30 1016 0 27.1 30.3 51.9 136.7 139.9 484.4
02/05 13:00 19.3 74 12.27 14.6 28 39 1016.3 0 27.1 30.4 51.9 136.8 140.0 484.5
02/05 12:50 19.1 73 11.97 14.1 28 30 1016.4 0 26.5 29.9 50.8 133.7 136.2 471.3
02/05 12:40 19.4 74 12.35 14.6 26 30 1016.5 0 27.3 30.5 52.2 137.5 140.9 487.8
02/05 12:30 19.4 75 12.51 14.9 28 35 1016.7 0 27.6 30.8 52.9 139.3 143.2 495.7
02/05 12:20 19.2 75 12.37 14.7 28 35 1016.8 0 27.3 30.6 52.4 138.1 141.6 490.2

Last Refresh: 03-May-2026 04:24:12

Bureau of Meteorology